PAA456 KMIA-KJFK
Flight info
| Callsign | PAA456 |
|---|---|
| Flight time | N/A |
| Altitude | 40000 |
| Route | PBI TRV MLB OMN NRB/N0491F390 SSI SVN NBC CRE NCA ECG SBY COL JFK |
| Aircraft | B742/H-SDIWY/L |
Departure
| Time | N/A |
|---|---|
| Airport | Miami International Airport (KMIA) |
Arrival
| Time | 2026-05-04 02:46 |
|---|---|
| Airport | John F. Kennedy International Airport (KJFK) |
| Time | Latitude | Longitude | Altitude | Speed | Heading |
|---|---|---|---|---|---|
| 2026-05-04 00:42 | 27.83653 | -80.56057 | 33980 ft | 403 kts | 327° |
| 2026-05-04 00:42 | 27.86327 | -80.57092 | 34389 ft | 397 kts | 327° |
| 2026-05-04 00:43 | 27.88936 | -80.58093 | 34802 ft | 390 kts | 327° |
| 2026-05-04 00:43 | 27.91486 | -80.59062 | 35207 ft | 382 kts | 326° |
| 2026-05-04 00:43 | 27.93971 | -80.60001 | 35606 ft | 372 kts | 326° |
| 2026-05-04 00:43 | 27.96416 | -80.60920 | 35943 ft | 365 kts | 325° |
| 2026-05-04 00:44 | 27.98829 | -80.61831 | 36037 ft | 363 kts | 325° |
| 2026-05-04 00:44 | 28.03605 | -80.63634 | 36070 ft | 363 kts | 325° |
| 2026-05-04 00:45 | 28.08402 | -80.65438 | 36081 ft | 364 kts | 324° |
| 2026-05-04 00:45 | 28.13174 | -80.67255 | 36062 ft | 367 kts | 324° |
| 2026-05-04 00:46 | 28.18055 | -80.69102 | 36068 ft | 371 kts | 325° |
| 2026-05-04 00:46 | 28.22944 | -80.70937 | 36058 ft | 374 kts | 325° |
| 2026-05-04 00:47 | 28.27927 | -80.72799 | 36057 ft | 378 kts | 325° |
| 2026-05-04 00:47 | 28.32930 | -80.74665 | 36065 ft | 382 kts | 325° |
| 2026-05-04 00:48 | 28.38036 | -80.76566 | 36069 ft | 386 kts | 325° |
| 2026-05-04 00:48 | 28.43181 | -80.78482 | 36075 ft | 391 kts | 326° |
| 2026-05-04 00:49 | 28.48421 | -80.80435 | 36072 ft | 397 kts | 326° |
| 2026-05-04 00:49 | 28.53708 | -80.82408 | 36077 ft | 403 kts | 326° |
| 2026-05-04 00:50 | 28.59090 | -80.84418 | 36079 ft | 409 kts | 326° |
| 2026-05-04 00:50 | 28.64576 | -80.86469 | 36074 ft | 416 kts | 326° |
| 2026-05-04 00:51 | 28.70153 | -80.88557 | 36081 ft | 424 kts | 326° |
| 2026-05-04 00:51 | 28.75833 | -80.90686 | 36086 ft | 431 kts | 326° |
| 2026-05-04 00:52 | 28.81606 | -80.92853 | 36091 ft | 439 kts | 327° |
| 2026-05-04 00:52 | 28.87498 | -80.95068 | 36092 ft | 447 kts | 327° |
| 2026-05-04 00:53 | 28.93491 | -80.97324 | 36096 ft | 455 kts | 327° |
| 2026-05-04 00:53 | 28.99583 | -80.99622 | 36106 ft | 463 kts | 327° |
| 2026-05-04 00:54 | 29.05793 | -81.01967 | 36094 ft | 472 kts | 327° |
| 2026-05-04 00:54 | 29.12068 | -81.04341 | 36103 ft | 479 kts | 327° |
| 2026-05-04 00:55 | 29.18482 | -81.06772 | 36106 ft | 487 kts | 328° |
| 2026-05-04 00:55 | 29.24981 | -81.09238 | 36096 ft | 494 kts | 328° |
| 2026-05-04 00:56 | 29.31498 | -81.11691 | 36113 ft | 490 kts | 327° |
| 2026-05-04 00:56 | 29.34710 | -81.12782 | 36105 ft | 505 kts | 336° |
| 2026-05-04 00:56 | 29.38183 | -81.13337 | 36126 ft | 518 kts | 342° |
| 2026-05-04 00:57 | 29.45425 | -81.13921 | 36112 ft | 521 kts | 345° |
| 2026-05-04 00:57 | 29.52673 | -81.14405 | 36105 ft | 525 kts | 345° |
| 2026-05-04 00:58 | 29.59968 | -81.14894 | 36108 ft | 524 kts | 345° |
| 2026-05-04 00:58 | 29.67207 | -81.15376 | 36113 ft | 519 kts | 345° |
| 2026-05-04 00:59 | 29.74432 | -81.15882 | 36111 ft | 517 kts | 345° |
| 2026-05-04 00:59 | 29.81626 | -81.16400 | 36120 ft | 519 kts | 345° |
| 2026-05-04 01:00 | 29.88883 | -81.16963 | 36121 ft | 521 kts | 345° |
| 2026-05-04 01:00 | 29.96070 | -81.17516 | 36125 ft | 516 kts | 345° |
| 2026-05-04 01:01 | 30.03221 | -81.18076 | 36123 ft | 516 kts | 345° |
| 2026-05-04 01:01 | 30.10290 | -81.18666 | 36119 ft | 517 kts | 345° |
| 2026-05-04 01:02 | 30.17455 | -81.19275 | 36114 ft | 516 kts | 345° |
| 2026-05-04 01:02 | 30.24618 | -81.19905 | 36115 ft | 517 kts | 345° |
| 2026-05-04 01:03 | 30.31802 | -81.20553 | 36112 ft | 517 kts | 345° |
| 2026-05-04 01:03 | 30.38969 | -81.21206 | 36113 ft | 515 kts | 345° |
| 2026-05-04 01:04 | 30.46118 | -81.21884 | 36113 ft | 515 kts | 345° |
| 2026-05-04 01:04 | 30.53306 | -81.22580 | 36114 ft | 518 kts | 345° |
| 2026-05-04 01:05 | 30.60463 | -81.23283 | 36115 ft | 515 kts | 345° |
| 2026-05-04 01:05 | 30.67644 | -81.24010 | 36109 ft | 514 kts | 345° |
| 2026-05-04 01:06 | 30.74771 | -81.24741 | 36112 ft | 513 kts | 345° |
| 2026-05-04 01:06 | 30.81928 | -81.25489 | 36107 ft | 515 kts | 345° |
| 2026-05-04 01:07 | 30.89092 | -81.26247 | 36112 ft | 515 kts | 345° |
| 2026-05-04 01:07 | 30.96246 | -81.27003 | 36118 ft | 514 kts | 345° |
| 2026-05-04 01:08 | 31.03383 | -81.27793 | 36114 ft | 516 kts | 345° |
| 2026-05-04 01:08 | 31.10543 | -81.28601 | 36105 ft | 515 kts | 345° |
| 2026-05-04 01:09 | 31.17680 | -81.29414 | 36114 ft | 515 kts | 345° |
| 2026-05-04 01:09 | 31.24813 | -81.30144 | 36111 ft | 519 kts | 350° |
| 2026-05-04 01:09 | 31.28437 | -81.30122 | 35895 ft | 522 kts | 353° |
| 2026-05-04 01:10 | 31.32076 | -81.29909 | 36070 ft | 524 kts | 356° |
| 2026-05-04 01:10 | 31.39417 | -81.28752 | 36114 ft | 538 kts | 2° |
| 2026-05-04 01:11 | 31.46853 | -81.27039 | 36114 ft | 544 kts | 4° |
| 2026-05-04 01:11 | 31.54281 | -81.25257 | 36116 ft | 540 kts | 4° |
| 2026-05-04 01:12 | 31.61656 | -81.23505 | 36116 ft | 536 kts | 4° |
| 2026-05-04 01:12 | 31.69001 | -81.21766 | 36113 ft | 538 kts | 4° |
| 2026-05-04 01:13 | 31.76355 | -81.20018 | 36122 ft | 537 kts | 4° |
| 2026-05-04 01:13 | 31.83702 | -81.18268 | 36121 ft | 537 kts | 4° |
| 2026-05-04 01:14 | 31.91037 | -81.16518 | 36136 ft | 538 kts | 4° |
| 2026-05-04 01:14 | 31.98310 | -81.14744 | 36121 ft | 537 kts | 5° |
| 2026-05-04 01:15 | 32.05578 | -81.13470 | 36103 ft | 523 kts | 355° |
| 2026-05-04 01:15 | 32.12701 | -81.13504 | 36109 ft | 526 kts | 357° |
| 2026-05-04 01:15 | 32.16343 | -81.12733 | 36110 ft | 541 kts | 9° |
| 2026-05-04 01:16 | 32.19893 | -81.11128 | 36110 ft | 552 kts | 21° |
| 2026-05-04 01:16 | 32.23155 | -81.08766 | 36109 ft | 560 kts | 33° |
| 2026-05-04 01:16 | 32.26070 | -81.05670 | 36119 ft | 568 kts | 45° |
| 2026-05-04 01:17 | 32.30979 | -80.98374 | 36114 ft | 571 kts | 51° |
| 2026-05-04 01:17 | 32.35622 | -80.90860 | 36111 ft | 570 kts | 52° |
| 2026-05-04 01:18 | 32.40246 | -80.83324 | 36117 ft | 569 kts | 52° |
| 2026-05-04 01:18 | 32.44887 | -80.75783 | 36114 ft | 571 kts | 52° |
| 2026-05-04 01:19 | 32.49538 | -80.68205 | 36115 ft | 570 kts | 52° |
| 2026-05-04 01:19 | 32.54556 | -80.61017 | 36118 ft | 566 kts | 41° |
| 2026-05-04 01:20 | 32.60156 | -80.54405 | 36115 ft | 567 kts | 42° |
| 2026-05-04 01:20 | 32.65634 | -80.47597 | 36110 ft | 568 kts | 44° |
| 2026-05-04 01:21 | 32.71036 | -80.40666 | 36114 ft | 569 kts | 46° |
| 2026-05-04 01:21 | 32.76121 | -80.33378 | 36110 ft | 570 kts | 49° |
| 2026-05-04 01:22 | 32.81084 | -80.25964 | 36122 ft | 571 kts | 50° |
| 2026-05-04 01:22 | 32.86036 | -80.18508 | 36124 ft | 571 kts | 49° |
| 2026-05-04 01:23 | 32.90977 | -80.11067 | 36125 ft | 571 kts | 49° |
| 2026-05-04 01:23 | 32.95944 | -80.03628 | 36122 ft | 571 kts | 49° |
| 2026-05-04 01:24 | 33.00905 | -79.96190 | 36127 ft | 572 kts | 49° |
| 2026-05-04 01:24 | 33.05894 | -79.88683 | 36125 ft | 573 kts | 50° |
| 2026-05-04 01:25 | 33.10830 | -79.81222 | 36133 ft | 573 kts | 50° |
| 2026-05-04 01:25 | 33.15761 | -79.73753 | 36126 ft | 571 kts | 49° |
| 2026-05-04 01:26 | 33.20711 | -79.66246 | 36130 ft | 572 kts | 49° |
| 2026-05-04 01:26 | 33.25657 | -79.58740 | 36134 ft | 571 kts | 49° |
| 2026-05-04 01:27 | 33.30554 | -79.51278 | 36132 ft | 571 kts | 49° |
| 2026-05-04 01:27 | 33.35471 | -79.43759 | 36134 ft | 572 kts | 49° |
| 2026-05-04 01:28 | 33.40382 | -79.36227 | 36129 ft | 572 kts | 49° |
| 2026-05-04 01:28 | 33.45275 | -79.28657 | 36128 ft | 573 kts | 50° |
| 2026-05-04 01:29 | 33.50157 | -79.21091 | 36131 ft | 573 kts | 50° |
| 2026-05-04 01:29 | 33.55056 | -79.13517 | 36132 ft | 573 kts | 50° |
| 2026-05-04 01:30 | 33.59933 | -79.05961 | 36136 ft | 572 kts | 50° |
| 2026-05-04 01:30 | 33.64818 | -78.98370 | 36132 ft | 573 kts | 50° |
| 2026-05-04 01:31 | 33.69680 | -78.90791 | 36132 ft | 574 kts | 50° |
| 2026-05-04 01:31 | 33.74567 | -78.83150 | 36130 ft | 574 kts | 50° |
| 2026-05-04 01:32 | 33.79528 | -78.75696 | 36134 ft | 571 kts | 44° |
| 2026-05-04 01:32 | 33.84779 | -78.68467 | 36130 ft | 573 kts | 49° |
| 2026-05-04 01:33 | 33.89600 | -78.60807 | 36130 ft | 574 kts | 50° |
| 2026-05-04 01:33 | 33.94365 | -78.53079 | 36127 ft | 575 kts | 51° |
| 2026-05-04 01:34 | 33.99173 | -78.45289 | 36136 ft | 576 kts | 51° |
| 2026-05-04 01:34 | 34.03971 | -78.37494 | 36131 ft | 574 kts | 50° |
| 2026-05-04 01:35 | 34.08751 | -78.29734 | 36126 ft | 574 kts | 51° |
| 2026-05-04 01:35 | 34.13533 | -78.21994 | 36126 ft | 575 kts | 51° |
| 2026-05-04 01:36 | 34.18347 | -78.14218 | 36127 ft | 575 kts | 51° |
| 2026-05-04 01:36 | 34.23163 | -78.06433 | 36129 ft | 575 kts | 51° |
| 2026-05-04 01:37 | 34.27973 | -77.98678 | 36132 ft | 576 kts | 50° |
| 2026-05-04 01:37 | 34.32798 | -77.90885 | 36127 ft | 575 kts | 50° |
| 2026-05-04 01:38 | 34.37623 | -77.83094 | 36123 ft | 576 kts | 50° |
| 2026-05-04 01:38 | 34.42459 | -77.75297 | 36125 ft | 576 kts | 50° |
| 2026-05-04 01:39 | 34.47288 | -77.67504 | 36122 ft | 577 kts | 50° |
| 2026-05-04 01:39 | 34.52134 | -77.59690 | 36120 ft | 576 kts | 50° |
| 2026-05-04 01:40 | 34.56962 | -77.51877 | 36115 ft | 575 kts | 50° |
| 2026-05-04 01:40 | 34.61783 | -77.44061 | 36115 ft | 577 kts | 50° |
| 2026-05-04 01:41 | 34.66629 | -77.36227 | 36116 ft | 578 kts | 50° |
| 2026-05-04 01:41 | 34.71469 | -77.28415 | 36113 ft | 577 kts | 50° |
| 2026-05-04 01:42 | 34.76317 | -77.20597 | 36123 ft | 579 kts | 50° |
| 2026-05-04 01:42 | 34.81336 | -77.12912 | 36123 ft | 573 kts | 40° |
| 2026-05-04 01:42 | 34.84337 | -77.09771 | 36131 ft | 564 kts | 29° |
| 2026-05-04 01:43 | 34.87647 | -77.07244 | 36136 ft | 556 kts | 22° |
| 2026-05-04 01:43 | 34.94515 | -77.02937 | 36122 ft | 552 kts | 19° |
| 2026-05-04 01:44 | 35.01430 | -76.98718 | 36121 ft | 553 kts | 19° |
| 2026-05-04 01:44 | 35.08325 | -76.94425 | 36132 ft | 550 kts | 20° |
| 2026-05-04 01:45 | 35.15134 | -76.90097 | 36130 ft | 549 kts | 20° |
| 2026-05-04 01:45 | 35.25337 | -76.83542 | 36127 ft | 551 kts | 20° |
| 2026-05-04 01:46 | 35.32142 | -76.79153 | 36124 ft | 548 kts | 20° |
| 2026-05-04 01:46 | 35.38937 | -76.74763 | 36130 ft | 551 kts | 20° |
| 2026-05-04 01:47 | 35.45754 | -76.70340 | 36121 ft | 548 kts | 20° |
| 2026-05-04 01:47 | 35.52508 | -76.65945 | 36134 ft | 546 kts | 20° |
| 2026-05-04 01:48 | 35.59240 | -76.61557 | 36126 ft | 545 kts | 20° |
| 2026-05-04 01:48 | 35.65972 | -76.57159 | 36133 ft | 546 kts | 20° |
| 2026-05-04 01:49 | 35.72702 | -76.52748 | 36136 ft | 546 kts | 20° |
| 2026-05-04 01:49 | 35.79435 | -76.48324 | 36131 ft | 547 kts | 20° |
| 2026-05-04 01:50 | 35.86155 | -76.43894 | 36123 ft | 544 kts | 20° |
| 2026-05-04 01:50 | 35.92865 | -76.39462 | 36127 ft | 544 kts | 20° |
| 2026-05-04 01:51 | 35.99541 | -76.35039 | 36123 ft | 542 kts | 20° |
| 2026-05-04 01:51 | 36.06206 | -76.30584 | 36123 ft | 544 kts | 21° |
| 2026-05-04 01:52 | 36.12872 | -76.26155 | 36116 ft | 542 kts | 21° |
| 2026-05-04 01:52 | 36.19547 | -76.21708 | 36117 ft | 544 kts | 21° |
| 2026-05-04 01:53 | 36.26001 | -76.16737 | 36119 ft | 546 kts | 22° |
| 2026-05-04 01:53 | 36.32778 | -76.12791 | 36120 ft | 531 kts | 11° |
| 2026-05-04 01:54 | 36.39804 | -76.10213 | 36118 ft | 524 kts | 6° |
| 2026-05-04 01:54 | 36.46861 | -76.07890 | 36111 ft | 523 kts | 4° |
| 2026-05-04 01:55 | 36.53924 | -76.05989 | 36113 ft | 520 kts | 3° |
| 2026-05-04 01:55 | 36.60987 | -76.04041 | 36116 ft | 522 kts | 3° |
| 2026-05-04 01:56 | 36.68085 | -76.02062 | 36109 ft | 522 kts | 3° |
| 2026-05-04 01:56 | 36.75171 | -76.00029 | 36109 ft | 522 kts | 4° |
| 2026-05-04 01:57 | 36.82236 | -75.97959 | 36106 ft | 522 kts | 4° |
| 2026-05-04 01:57 | 36.89311 | -75.95830 | 36105 ft | 522 kts | 4° |
| 2026-05-04 01:58 | 36.96372 | -75.93718 | 36114 ft | 522 kts | 4° |
| 2026-05-04 01:58 | 37.03460 | -75.91602 | 36105 ft | 521 kts | 4° |
| 2026-05-04 01:59 | 37.10499 | -75.89477 | 36095 ft | 519 kts | 4° |
| 2026-05-04 01:59 | 37.17502 | -75.87357 | 36107 ft | 521 kts | 4° |
| 2026-05-04 02:00 | 37.24549 | -75.85216 | 36087 ft | 519 kts | 4° |
| 2026-05-04 02:00 | 37.31558 | -75.83081 | 36089 ft | 518 kts | 4° |
| 2026-05-04 02:01 | 37.38555 | -75.80941 | 36091 ft | 517 kts | 4° |
| 2026-05-04 02:01 | 37.45560 | -75.78802 | 36082 ft | 519 kts | 4° |
| 2026-05-04 02:02 | 37.52573 | -75.76648 | 36090 ft | 519 kts | 4° |
| 2026-05-04 02:02 | 37.59591 | -75.74485 | 36085 ft | 517 kts | 4° |
| 2026-05-04 02:03 | 37.66575 | -75.72328 | 36076 ft | 517 kts | 4° |
| 2026-05-04 02:03 | 37.73592 | -75.70158 | 36070 ft | 517 kts | 4° |
| 2026-05-04 02:04 | 37.80550 | -75.67994 | 36083 ft | 513 kts | 4° |
| 2026-05-04 02:04 | 37.87552 | -75.65821 | 36058 ft | 516 kts | 4° |
| 2026-05-04 02:05 | 37.94568 | -75.63631 | 36071 ft | 516 kts | 4° |
| 2026-05-04 02:05 | 38.01566 | -75.61439 | 36069 ft | 514 kts | 4° |
| 2026-05-04 02:06 | 38.08548 | -75.59251 | 36068 ft | 514 kts | 4° |
| 2026-05-04 02:06 | 38.15541 | -75.57051 | 36063 ft | 515 kts | 4° |
| 2026-05-04 02:07 | 38.19035 | -75.55949 | 36300 ft | 515 kts | 4° |
| 2026-05-04 02:07 | 38.22528 | -75.54849 | 36152 ft | 518 kts | 4° |
| 2026-05-04 02:07 | 38.29502 | -75.52641 | 36067 ft | 510 kts | 4° |
| 2026-05-04 02:08 | 38.32910 | -75.51312 | 36064 ft | 521 kts | 13° |
| 2026-05-04 02:08 | 38.36177 | -75.49206 | 36062 ft | 534 kts | 22° |
| 2026-05-04 02:08 | 38.39372 | -75.46714 | 35930 ft | 542 kts | 24° |
| 2026-05-04 02:08 | 38.42577 | -75.44090 | 35627 ft | 545 kts | 25° |
| 2026-05-04 02:09 | 38.45763 | -75.41430 | 35335 ft | 539 kts | 25° |
| 2026-05-04 02:09 | 38.48883 | -75.38793 | 35034 ft | 532 kts | 25° |
| 2026-05-04 02:09 | 38.51866 | -75.35968 | 34719 ft | 536 kts | 34° |
| 2026-05-04 02:09 | 38.54560 | -75.32607 | 34412 ft | 542 kts | 40° |
| 2026-05-04 02:10 | 38.57120 | -75.29061 | 34120 ft | 543 kts | 41° |
| 2026-05-04 02:10 | 38.59649 | -75.25447 | 33820 ft | 543 kts | 42° |
| 2026-05-04 02:10 | 38.62152 | -75.21835 | 33474 ft | 539 kts | 42° |
| 2026-05-04 02:10 | 38.64627 | -75.18250 | 33129 ft | 532 kts | 42° |
| 2026-05-04 02:11 | 38.67049 | -75.14741 | 32789 ft | 525 kts | 41° |
| 2026-05-04 02:11 | 38.69468 | -75.11242 | 32445 ft | 521 kts | 41° |
| 2026-05-04 02:11 | 38.71865 | -75.07779 | 32101 ft | 518 kts | 41° |
| 2026-05-04 02:11 | 38.74251 | -75.04338 | 31766 ft | 514 kts | 41° |
| 2026-05-04 02:12 | 38.76621 | -75.00920 | 31424 ft | 509 kts | 41° |
| 2026-05-04 02:12 | 38.78964 | -74.97549 | 31085 ft | 506 kts | 41° |
| 2026-05-04 02:12 | 38.81307 | -74.94181 | 30754 ft | 504 kts | 41° |
| 2026-05-04 02:12 | 38.83629 | -74.90847 | 30368 ft | 499 kts | 40° |
| 2026-05-04 02:13 | 38.85934 | -74.87537 | 29984 ft | 493 kts | 40° |
| 2026-05-04 02:13 | 38.88211 | -74.84271 | 29616 ft | 488 kts | 40° |
| 2026-05-04 02:13 | 38.90478 | -74.81027 | 29229 ft | 487 kts | 40° |
| 2026-05-04 02:13 | 38.92733 | -74.77802 | 28843 ft | 483 kts | 40° |
| 2026-05-04 02:14 | 38.94977 | -74.74596 | 28461 ft | 479 kts | 40° |
| 2026-05-04 02:14 | 38.97195 | -74.71428 | 28074 ft | 474 kts | 40° |
| 2026-05-04 02:14 | 38.99392 | -74.68294 | 27702 ft | 469 kts | 40° |
| 2026-05-04 02:14 | 39.01643 | -74.65289 | 27320 ft | 457 kts | 33° |
| 2026-05-04 02:15 | 39.04163 | -74.62941 | 26931 ft | 440 kts | 20° |
| 2026-05-04 02:15 | 39.06883 | -74.61187 | 26549 ft | 431 kts | 14° |
| 2026-05-04 02:15 | 39.09652 | -74.59722 | 26171 ft | 426 kts | 12° |
| 2026-05-04 02:15 | 39.12406 | -74.58396 | 25796 ft | 419 kts | 10° |
| 2026-05-04 02:16 | 39.15140 | -74.57156 | 25426 ft | 413 kts | 9° |
| 2026-05-04 02:16 | 39.17854 | -74.55989 | 25026 ft | 408 kts | 8° |
| 2026-05-04 02:16 | 39.20533 | -74.54890 | 24648 ft | 403 kts | 8° |
| 2026-05-04 02:16 | 39.23197 | -74.53846 | 24284 ft | 401 kts | 8° |
| 2026-05-04 02:17 | 39.25870 | -74.52840 | 23891 ft | 396 kts | 7° |
| 2026-05-04 02:17 | 39.28511 | -74.51877 | 23508 ft | 394 kts | 7° |
| 2026-05-04 02:17 | 39.31146 | -74.50934 | 23120 ft | 392 kts | 7° |
| 2026-05-04 02:17 | 39.33765 | -74.50004 | 22749 ft | 390 kts | 7° |
| 2026-05-04 02:18 | 39.36372 | -74.49086 | 22364 ft | 387 kts | 7° |
| 2026-05-04 02:18 | 39.38964 | -74.48180 | 21977 ft | 385 kts | 7° |
| 2026-05-04 02:18 | 39.41538 | -74.47286 | 21597 ft | 382 kts | 7° |
| 2026-05-04 02:18 | 39.44111 | -74.46392 | 21211 ft | 381 kts | 7° |
| 2026-05-04 02:19 | 39.46660 | -74.45511 | 20831 ft | 379 kts | 7° |
| 2026-05-04 02:19 | 39.49194 | -74.44636 | 20454 ft | 375 kts | 7° |
| 2026-05-04 02:19 | 39.51714 | -74.43766 | 20084 ft | 374 kts | 8° |
| 2026-05-04 02:19 | 39.54219 | -74.42899 | 19702 ft | 371 kts | 8° |
| 2026-05-04 02:20 | 39.56705 | -74.42042 | 19330 ft | 369 kts | 8° |
| 2026-05-04 02:20 | 39.59190 | -74.41186 | 18953 ft | 368 kts | 8° |
| 2026-05-04 02:20 | 39.61658 | -74.40336 | 18582 ft | 367 kts | 9° |
| 2026-05-04 02:20 | 39.64113 | -74.39484 | 18205 ft | 362 kts | 9° |
| 2026-05-04 02:21 | 39.66537 | -74.38643 | 17828 ft | 357 kts | 9° |
| 2026-05-04 02:21 | 39.68915 | -74.37818 | 17456 ft | 352 kts | 9° |
| 2026-05-04 02:21 | 39.71265 | -74.37003 | 17081 ft | 347 kts | 9° |
| 2026-05-04 02:21 | 39.73582 | -74.36199 | 16699 ft | 342 kts | 9° |
| 2026-05-04 02:22 | 39.75870 | -74.35404 | 16316 ft | 338 kts | 9° |
| 2026-05-04 02:22 | 39.78123 | -74.34618 | 15944 ft | 333 kts | 10° |
| 2026-05-04 02:22 | 39.80351 | -74.33818 | 15578 ft | 329 kts | 10° |
| 2026-05-04 02:22 | 39.82544 | -74.33038 | 15224 ft | 325 kts | 10° |
| 2026-05-04 02:23 | 39.84715 | -74.32272 | 14844 ft | 321 kts | 10° |
| 2026-05-04 02:23 | 39.86858 | -74.31521 | 14500 ft | 317 kts | 10° |
| 2026-05-04 02:23 | 39.88976 | -74.30782 | 14146 ft | 313 kts | 10° |
| 2026-05-04 02:23 | 39.91075 | -74.30050 | 13775 ft | 310 kts | 10° |
| 2026-05-04 02:24 | 39.93152 | -74.29325 | 13404 ft | 307 kts | 10° |
| 2026-05-04 02:24 | 39.95202 | -74.28610 | 13033 ft | 304 kts | 10° |
| 2026-05-04 02:24 | 39.97234 | -74.27901 | 12655 ft | 301 kts | 10° |
| 2026-05-04 02:24 | 39.99255 | -74.27195 | 12260 ft | 298 kts | 10° |
| 2026-05-04 02:25 | 40.01266 | -74.26492 | 11871 ft | 296 kts | 10° |
| 2026-05-04 02:25 | 40.03242 | -74.25801 | 11506 ft | 293 kts | 10° |
| 2026-05-04 02:25 | 40.05202 | -74.25114 | 11125 ft | 290 kts | 10° |
| 2026-05-04 02:25 | 40.07149 | -74.24432 | 10743 ft | 287 kts | 10° |
| 2026-05-04 02:26 | 40.09080 | -74.23754 | 10365 ft | 285 kts | 10° |
| 2026-05-04 02:26 | 40.10993 | -74.23084 | 9985 ft | 283 kts | 10° |
| 2026-05-04 02:26 | 40.12894 | -74.22416 | 9601 ft | 281 kts | 10° |
| 2026-05-04 02:26 | 40.14788 | -74.21750 | 9207 ft | 280 kts | 10° |
| 2026-05-04 02:27 | 40.16682 | -74.21084 | 8834 ft | 280 kts | 10° |
| 2026-05-04 02:27 | 40.18533 | -74.20274 | 8446 ft | 282 kts | 24° |
| 2026-05-04 02:27 | 40.20104 | -74.18700 | 8085 ft | 285 kts | 37° |
| 2026-05-04 02:27 | 40.21569 | -74.16944 | 7714 ft | 285 kts | 38° |
| 2026-05-04 02:28 | 40.23020 | -74.15173 | 7342 ft | 284 kts | 38° |
| 2026-05-04 02:28 | 40.24460 | -74.13412 | 7001 ft | 281 kts | 38° |
| 2026-05-04 02:28 | 40.25845 | -74.11708 | 7060 ft | 263 kts | 38° |
| 2026-05-04 02:28 | 40.27139 | -74.10101 | 7082 ft | 249 kts | 38° |
| 2026-05-04 02:29 | 40.28383 | -74.08543 | 7087 ft | 245 kts | 38° |
| 2026-05-04 02:29 | 40.29621 | -74.06992 | 7093 ft | 245 kts | 38° |
| 2026-05-04 02:29 | 40.30851 | -74.05444 | 7088 ft | 245 kts | 38° |
| 2026-05-04 02:29 | 40.32078 | -74.03894 | 7081 ft | 245 kts | 38° |
| 2026-05-04 02:30 | 40.33314 | -74.02334 | 7089 ft | 245 kts | 38° |
| 2026-05-04 02:30 | 40.34546 | -74.00786 | 7081 ft | 245 kts | 38° |
| 2026-05-04 02:30 | 40.35783 | -73.99232 | 7071 ft | 247 kts | 38° |
| 2026-05-04 02:30 | 40.37024 | -73.97680 | 7075 ft | 246 kts | 38° |
| 2026-05-04 02:31 | 40.38263 | -73.96127 | 7069 ft | 246 kts | 37° |
| 2026-05-04 02:31 | 40.39499 | -73.94573 | 7074 ft | 245 kts | 38° |
| 2026-05-04 02:31 | 40.40713 | -73.93004 | 7061 ft | 248 kts | 46° |
| 2026-05-04 02:31 | 40.41420 | -73.90873 | 6960 ft | 266 kts | 77° |
| 2026-05-04 02:32 | 40.41611 | -73.88454 | 6747 ft | 266 kts | 82° |
| 2026-05-04 02:32 | 40.41731 | -73.86055 | 6496 ft | 263 kts | 82° |
| 2026-05-04 02:32 | 40.41846 | -73.83669 | 6270 ft | 262 kts | 82° |
| 2026-05-04 02:32 | 40.41965 | -73.81289 | 6035 ft | 262 kts | 82° |
| 2026-05-04 02:33 | 40.42085 | -73.78915 | 5803 ft | 260 kts | 82° |
| 2026-05-04 02:33 | 40.42209 | -73.76566 | 5553 ft | 259 kts | 82° |
| 2026-05-04 02:33 | 40.42340 | -73.74207 | 5329 ft | 259 kts | 82° |
| 2026-05-04 02:33 | 40.42470 | -73.71863 | 5097 ft | 258 kts | 82° |
| 2026-05-04 02:34 | 40.42600 | -73.69521 | 4858 ft | 256 kts | 82° |
| 2026-05-04 02:34 | 40.42729 | -73.67192 | 4620 ft | 256 kts | 84° |
| 2026-05-04 02:34 | 40.42393 | -73.64916 | 4387 ft | 261 kts | 116° |
| 2026-05-04 02:34 | 40.41503 | -73.62858 | 4162 ft | 259 kts | 122° |
| 2026-05-04 02:35 | 40.40565 | -73.60860 | 4026 ft | 256 kts | 122° |
| 2026-05-04 02:35 | 40.39634 | -73.58882 | 3995 ft | 255 kts | 122° |
| 2026-05-04 02:35 | 40.38692 | -73.56884 | 3986 ft | 258 kts | 122° |
| 2026-05-04 02:35 | 40.37749 | -73.54889 | 3983 ft | 256 kts | 122° |
| 2026-05-04 02:36 | 40.37168 | -73.52707 | 3981 ft | 255 kts | 89° |
| 2026-05-04 02:36 | 40.37543 | -73.50558 | 3976 ft | 236 kts | 51° |
| 2026-05-04 02:36 | 40.38668 | -73.49062 | 3988 ft | 229 kts | 31° |
| 2026-05-04 02:36 | 40.39943 | -73.47835 | 3982 ft | 226 kts | 29° |
| 2026-05-04 02:37 | 40.41227 | -73.46626 | 3983 ft | 227 kts | 29° |
| 2026-05-04 02:37 | 40.42548 | -73.45538 | 3969 ft | 218 kts | 10° |
| 2026-05-04 02:37 | 40.44024 | -73.45451 | 3986 ft | 211 kts | 345° |
| 2026-05-04 02:37 | 40.45456 | -73.45793 | 3976 ft | 206 kts | 343° |
| 2026-05-04 02:38 | 40.46879 | -73.46173 | 3976 ft | 208 kts | 343° |
| 2026-05-04 02:38 | 40.48278 | -73.46552 | 3967 ft | 199 kts | 341° |
| 2026-05-04 02:38 | 40.49407 | -73.47441 | 3974 ft | 190 kts | 302° |
| 2026-05-04 02:38 | 40.50010 | -73.48934 | 3987 ft | 178 kts | 296° |
| 2026-05-04 02:39 | 40.50592 | -73.50371 | 3982 ft | 178 kts | 298° |
| 2026-05-04 02:39 | 40.51208 | -73.51776 | 3979 ft | 177 kts | 300° |
| 2026-05-04 02:39 | 40.51840 | -73.53171 | 3976 ft | 176 kts | 300° |
| 2026-05-04 02:39 | 40.52465 | -73.54533 | 3956 ft | 171 kts | 300° |
| 2026-05-04 02:40 | 40.53072 | -73.55853 | 3754 ft | 163 kts | 300° |
| 2026-05-04 02:40 | 40.53642 | -73.57096 | 3585 ft | 154 kts | 299° |
| 2026-05-04 02:40 | 40.54180 | -73.58270 | 3393 ft | 146 kts | 299° |
| 2026-05-04 02:40 | 40.54701 | -73.59409 | 3234 ft | 145 kts | 299° |
| 2026-05-04 02:41 | 40.55224 | -73.60555 | 3071 ft | 146 kts | 298° |
| 2026-05-04 02:41 | 40.55733 | -73.61668 | 2905 ft | 135 kts | 298° |
| 2026-05-04 02:41 | 40.56215 | -73.62723 | 2680 ft | 133 kts | 298° |
| 2026-05-04 02:41 | 40.56689 | -73.63761 | 2504 ft | 132 kts | 298° |
| 2026-05-04 02:42 | 40.57164 | -73.64802 | 2345 ft | 133 kts | 297° |
| 2026-05-04 02:42 | 40.57638 | -73.65841 | 2192 ft | 130 kts | 297° |
| 2026-05-04 02:42 | 40.58103 | -73.66864 | 2060 ft | 134 kts | 297° |
| 2026-05-04 02:42 | 40.58582 | -73.67914 | 1778 ft | 137 kts | 297° |
| 2026-05-04 02:43 | 40.59063 | -73.68969 | 1596 ft | 133 kts | 297° |
| 2026-05-04 02:43 | 40.59222 | -73.69318 | 1556 ft | 135 kts | 297° |
| 2026-05-04 02:43 | 40.59452 | -73.69826 | 1490 ft | 135 kts | 297° |
| 2026-05-04 02:44 | 40.59938 | -73.70891 | 1308 ft | 137 kts | 297° |
| 2026-05-04 02:44 | 40.60426 | -73.71964 | 1130 ft | 137 kts | 297° |
| 2026-05-04 02:44 | 40.60911 | -73.73029 | 948 ft | 138 kts | 297° |
| 2026-05-04 02:44 | 40.61410 | -73.74128 | 772 ft | 144 kts | 297° |
| 2026-05-04 02:45 | 40.61931 | -73.75269 | 578 ft | 149 kts | 299° |
| 2026-05-04 02:45 | 40.62469 | -73.76421 | 398 ft | 152 kts | 298° |
| 2026-05-04 02:45 | 40.62996 | -73.77579 | 132 ft | 150 kts | 298° |
| 2026-05-04 02:45 | 40.63515 | -73.78749 | 20 ft | 145 kts | 298° |
| 2026-05-04 02:46 | 40.63793 | -73.79391 | 14 ft | 125 kts | 297° |
| 2026-05-04 02:46 | 40.63900 | -73.79649 | 14 ft | 114 kts | 302° |
| 2026-05-04 02:46 | 40.64229 | -73.80343 | 16 ft | 67 kts | 300° |
| 2026-05-04 02:46 | 40.64409 | -73.80738 | 17 ft | 46 kts | 301° |
| 2026-05-04 02:47 | 40.64570 | -73.81086 | 17 ft | 43 kts | 301° |
| 2026-05-04 02:47 | 40.64655 | -73.81234 | 17 ft | 17 kts | 336° |
| 2026-05-04 02:47 | 40.64759 | -73.81173 | 17 ft | 18 kts | 75° |
| 2026-05-04 02:47 | 40.64720 | -73.81024 | 17 ft | 17 kts | 120° |
| 2026-05-04 02:48 | 40.64657 | -73.80885 | 17 ft | 20 kts | 121° |